Tucson International Airport
KTUS : now visible

Airfield :











YOU CAN JOIN US ON...

 
LOGIN :

Register | Disclaimer

   EN    FR    IT 

 









Legend :    VFR   Marginal VFR   IFR   Intensive IFR   Very Intensive IFR
Visi :
Ceiling :
>= 8 km
>= 3000ft
5 to 8 km
1000 to 3000 ft
1500m to 5 km
500 to 1000 ft
800 to 1500m
200 to 500 ft
< 800m
< 200 ft
Symbols :   Thunderstorms  Fog  Heavy snow  Heavy precipitations  Wind > 20 kt







- Airport Elevation : 2643 ft
- IATA code : TUS


KTUS - Tucson International

CURRENT METAR :
  • 210353Z 20004KT 10SM CLR 24/M04 A2992 RMK AO2 SLP087 T02391044

EXPIRED METARs :
  • 210253Z 23007KT 10SM CLR 25/M08 A2989 RMK AO2 SLP083 T02501078 53012
  • 210153Z 21011G20KT 10SM CLR 27/M08 A2987 RMK AO2 SLP076 T02721083
  • 210053Z 22014G23KT 10SM CLR 29/M08 A2986 RMK AO2 SLP072 T02941078

TAF KTUS
Valid from the 21 at 00:00 until the 22 at 00:00 UTC


202325Z 2100/2124 24015G25KT P6SM SKC
FM210300 20006KT P6SM SKC
FM211700 22010G20KT P6SM SKC
KZAB FIR / North America



MET'MAP, your aeronautical weather chart ! - Copyright ORBIFLY December 2007 - Disclaimer

ORBIFLY MET'MAP TEAM :

Programming & Development : Alexandra Zaïnal
Concept & Development : Baudouin d'Aumeries
Co-Development & Prog : Marc-Olivier Méhu
Technical & hardware support : Manuel Goepfert

Contact : metmap@orbifly.com




SOURCES & CREDITS :

   NOAA       Earth
Advisory